Meteorológiai információk azoknak akik tudják olvasni.

METAR = LHBP 181330Z 31013KT CAVOK 09/02 Q1015 NOSIG

9 órás TAF = TAF TAF LHBP 242330Z 2423/2424 30008KT CAVOK BECMG 2506/2509 24010KT OVC030 TEMPO 2509/2515 24015G25KT 8000 -RA BKN013 OVC025 BECMG 2515/2518 30008KT CAVOK

24 órás TAF = TAF TAF LHBP 181115Z 1812/1912 32016G28KT CAVOK BECMG 1815/1818 31009KT TEMPO 1822/1907 34004KT

ÁLLOMÁS.................... LHBP
ÉSZLELÉS................... Mon Mar 18, 14:30 CET
MOST....................... Mon Mar 18, 14:57 CET
IDŐ........................ 27 perccel ezelőtt
SZÉL....................... ÉNY irányból 13 csomó
LÁTÁSTÁVOLSÁG.............. 10 km vagy több
FELHŐZET................... jelentős felhőzet nincs
HŐMÉRSÉKLET................ 48°F (9°C)
HŐÉRZET.................... 43°F (6°C)
HARMATPONT................. 36°F (2°C)
PÁRATARTALOM............... 62%
LÉGNYOMÁS.................. 1015 hPa (29.97 in Hg)

További információ LHBP állomásról

Meteor információ kérése:        állomásról.    

 

www.tothgeza.hu

 

English version
Copyright © 2003-2019 Tóth Géza Minden jog fenntartva.